Time,TemperatureF,DewpointF,PressureIn,WindDirection,WindDirectionDegrees,WindSpeedMPH,WindSpeedGustMPH,Humidity,HourlyPrecipIn,Conditions,Clouds,dailyrainin,SoftwareType,DateUTC
2013-03-14 00:12:00,37.0,-99.9,30.06,WNW,288,13.0,21.0,-999,-99.99,,,-99.99,,2013-03-14 04:12:00,
2013-03-14 00:22:00,37.0,-99.9,30.07,North,-999,-999.0,-999.0,-999,-99.99,,,-99.99,,2013-03-14 04:22:00,
2013-03-14 00:33:00,37.0,-99.9,30.07,NW,306,15.0,22.0,-999,-99.99,,,-99.99,,2013-03-14 04:33:00,
2013-03-14 00:42:00,37.0,-99.9,30.07,North,-999,-999.0,-999.0,-999,-99.99,,,-99.99,,2013-03-14 04:42:00,
2013-03-14 00:53:00,37.0,-99.9,30.07,North,-999,-999.0,-999.0,-999,-99.99,,,-99.99,,2013-03-14 04:53:00,
2013-03-14 01:02:00,37.0,-99.9,30.07,NW,309,14.0,24.0,-999,-99.99,,,-99.99,,2013-03-14 05:02:00,
2013-03-14 01:13:00,37.0,-99.9,30.08,North,-999,-999.0,-999.0,-999,-99.99,,,-99.99,,2013-03-14 05:13:00,
2013-03-14 01:22:00,37.0,-99.9,30.08,NW,307,14.0,25.0,-999,-99.99,,,-99.99,,2013-03-14 05:22:00,
2013-03-14 01:33:00,32.0,-99.9,30.07,NW,314,9.0,17.0,-999,-99.99,,,-99.99,,2013-03-14 05:33:00,
2013-03-14 01:42:00,36.0,-99.9,30.07,NW,311,13.0,17.0,-999,-99.99,,,-99.99,,2013-03-14 05:42:00,
2013-03-14 01:53:00,36.0,-99.9,30.07,North,-999,-999.0,-999.0,-999,-99.99,,,-99.99,,2013-03-14 05:53:00,
2013-03-14 02:02:00,36.0,-99.9,30.07,West,280,8.0,16.0,-999,-99.99,,,-99.99,,2013-03-14 06:02:00,
2013-03-14 02:12:00,36.0,-99.9,30.07,North,-999,-999.0,-999.0,-999,-99.99,,,-99.99,,2013-03-14 06:12:00,
2013-03-14 02:22:00,-999.0,-99.9,30.07,WNW,299,11.0,20.0,-999,-99.99,,,-99.99,,2013-03-14 06:22:00,
2013-03-14 02:33:00,36.0,-99.9,30.08,WNW,299,10.0,15.0,-999,-99.99,,,-99.99,,2013-03-14 06:33:00,
2013-03-14 02:42:00,36.0,-99.9,30.08,North,-999,-999.0,-999.0,-999,-99.99,,,-99.99,,2013-03-14 06:42:00,
2013-03-14 02:52:00,-999.0,-99.9,30.07,WNW,290,12.0,15.0,-999,-99.99,,,-99.99,,2013-03-14 06:52:00,
2013-03-14 03:02:00,36.0,-99.9,30.07,WNW,298,17.0,21.0,-999,-99.99,,,-99.99,,2013-03-14 07:02:00,
2013-03-14 03:12:00,36.0,-99.9,30.07,WNW,295,11.0,18.0,-999,-99.99,,,-99.99,,2013-03-14 07:12:00,
2013-03-14 03:22:00,-999.0,-99.9,30.07,NW,313,15.0,20.0,-999,-99.99,,,-99.99,,2013-03-14 07:22:00,
2013-03-14 03:32:00,36.0,-99.9,30.07,NW,306,11.0,23.0,-999,-99.99,,,-99.99,,2013-03-14 07:32:00,
2013-03-14 03:43:00,36.0,-99.9,30.07,North,-999,-999.0,-999.0,-999,-99.99,,,-99.99,,2013-03-14 07:43:00,
2013-03-14 03:52:00,35.0,-99.9,30.07,North,-999,-999.0,-999.0,-999,-99.99,,,-99.99,,2013-03-14 07:52:00,
2013-03-14 04:02:00,36.0,-99.9,30.06,NW,316,14.0,23.0,-999,-99.99,,,-99.99,,2013-03-14 08:02:00,
2013-03-14 04:12:00,35.0,-99.9,30.07,North,-999,-999.0,-999.0,-999,-99.99,,,-99.99,,2013-03-14 08:12:00,
2013-03-14 04:22:00,-999.0,-99.9,30.06,NW,319,15.0,19.0,-999,-99.99,,,-99.99,,2013-03-14 08:22:00,
2013-03-14 04:32:00,36.0,-99.9,30.07,WNW,298,12.0,17.0,-999,-99.99,,,-99.99,,2013-03-14 08:32:00,
2013-03-14 04:42:00,36.0,-99.9,30.07,NW,322,14.0,24.0,-999,-99.99,,,-99.99,,2013-03-14 08:42:00,
2013-03-14 04:52:00,-999.0,-99.9,30.07,NW,315,16.0,23.0,-999,-99.99,,,-99.99,,2013-03-14 08:52:00,
2013-03-14 05:02:00,35.0,-99.9,30.07,NW,316,10.0,21.0,-999,-99.99,,,-99.99,,2013-03-14 09:02:00,
2013-03-14 05:12:00,35.0,-99.9,30.07,North,-999,-999.0,-999.0,-999,-99.99,,,-99.99,,2013-03-14 09:12:00,
2013-03-14 05:22:00,-999.0,-99.9,30.07,NW,309,19.0,24.0,-999,-99.99,,,-99.99,,2013-03-14 09:22:00,
2013-03-14 05:32:00,35.0,-99.9,30.07,NW,323,20.0,22.0,-999,-99.99,,,-99.99,,2013-03-14 09:32:00,
2013-03-14 05:42:00,-999.0,-99.9,30.07,NW,309,15.0,17.0,-999,-99.99,,,-99.99,,2013-03-14 09:42:00,
2013-03-14 05:52:00,35.0,-99.9,30.07,North,-999,-999.0,-999.0,-999,-99.99,,,-99.99,,2013-03-14 09:52:00,
2013-03-14 06:02:00,35.0,-99.9,30.08,WNW,300,9.0,15.0,-999,-99.99,,,-99.99,,2013-03-14 10:02:00,
2013-03-14 06:12:00,35.0,-99.9,30.08,NW,310,13.0,22.0,-999,-99.99,,,-99.99,,2013-03-14 10:12:00,
2013-03-14 06:22:00,-999.0,-99.9,30.08,NW,310,13.0,22.0,-999,-99.99,,,-99.99,,2013-03-14 10:22:00,
2013-03-14 06:32:00,35.0,-99.9,30.09,NW,304,12.0,18.0,-999,-99.99,,,-99.99,,2013-03-14 10:32:00,
2013-03-14 06:42:00,35.0,-99.9,30.09,WNW,301,14.0,20.0,-999,-99.99,,,-99.99,,2013-03-14 10:42:00,
2013-03-14 06:52:00,35.0,-99.9,30.09,North,-999,-999.0,-999.0,-999,-99.99,,,-99.99,,2013-03-14 10:52:00,
2013-03-14 07:02:00,35.0,-99.9,30.09,NW,307,13.0,16.0,-999,-99.99,,,-99.99,,2013-03-14 11:02:00,
2013-03-14 07:12:00,34.0,-99.9,30.09,North,-999,-999.0,-999.0,-999,-99.99,,,-99.99,,2013-03-14 11:12:00,
2013-03-14 07:22:00,-999.0,-99.9,30.10,NW,311,10.0,13.0,-999,-99.99,,,-99.99,,2013-03-14 11:22:00,
2013-03-14 07:33:00,35.0,-99.9,30.10,WNW,301,14.0,17.0,-999,-99.99,,,-99.99,,2013-03-14 11:33:00,
2013-03-14 07:42:00,-999.0,-99.9,30.10,WNW,300,11.0,20.0,-999,-99.99,,,-99.99,,2013-03-14 11:42:00,
2013-03-14 07:53:00,-999.0,-99.9,30.10,WNW,302,13.0,19.0,-999,-99.99,,,-99.99,,2013-03-14 11:53:00,
2013-03-14 08:02:00,35.0,-99.9,30.11,WNW,296,12.0,17.0,-999,-99.99,,,-99.99,,2013-03-14 12:02:00,
2013-03-14 08:12:00,34.0,-99.9,30.11,WNW,295,11.0,19.0,-999,-99.99,,,-99.99,,2013-03-14 12:12:00,
2013-03-14 08:22:00,-999.0,-99.9,30.12,WNW,297,14.0,18.0,-999,-99.99,,,-99.99,,2013-03-14 12:22:00,
2013-03-14 08:33:00,34.0,-99.9,30.12,NW,304,12.0,19.0,-999,-99.99,,,-99.99,,2013-03-14 12:33:00,
2013-03-14 08:43:00,-999.0,-99.9,30.12,WNW,296,9.0,17.0,-999,-99.99,,,-99.99,,2013-03-14 12:43:00,
2013-03-14 08:52:00,-999.0,-99.9,30.12,WNW,286,11.0,15.0,-999,-99.99,,,-99.99,,2013-03-14 12:52:00,
2013-03-14 09:03:00,35.0,-99.9,30.12,NW,313,14.0,18.0,-999,-99.99,,,-99.99,,2013-03-14 13:03:00,
2013-03-14 09:13:00,35.0,-99.9,30.12,North,-999,-999.0,-999.0,-999,-99.99,,,-99.99,,2013-03-14 13:13:00,
2013-03-14 09:22:00,35.0,-99.9,30.13,NW,313,15.0,23.0,-999,-99.99,,,-99.99,,2013-03-14 13:22:00,
2013-03-14 09:32:00,35.0,-99.9,30.13,NNW,340,13.0,24.0,-999,-99.99,,,-99.99,,2013-03-14 13:32:00,
2013-03-14 09:43:00,35.0,-99.9,30.13,NNW,340,13.0,24.0,-999,-99.99,,,-99.99,,2013-03-14 13:43:00,
2013-03-14 09:53:00,36.0,-99.9,30.13,North,-999,-999.0,-999.0,-999,-99.99,,,-99.99,,2013-03-14 13:53:00,
2013-03-14 10:02:00,36.0,-99.9,30.13,WNW,299,24.0,37.0,-999,-99.99,,,-99.99,,2013-03-14 14:02:00,
2013-03-14 10:12:00,36.0,-99.9,30.13,North,-999,-999.0,-999.0,-999,-99.99,,,-99.99,,2013-03-14 14:12:00,
2013-03-14 10:22:00,-999.0,-99.9,30.13,NW,315,20.0,29.0,-999,-99.99,,,-99.99,,2013-03-14 14:22:00,
2013-03-14 10:32:00,37.0,-99.9,30.14,NW,315,19.0,26.0,-999,-99.99,,,-99.99,,2013-03-14 14:32:00,
2013-03-14 10:43:00,37.0,-99.9,30.14,North,-999,-999.0,-999.0,-999,-99.99,,,-99.99,,2013-03-14 14:43:00,
2013-03-14 10:53:00,-999.0,-99.9,30.13,NW,325,14.0,25.0,-999,-99.99,,,-99.99,,2013-03-14 14:53:00,
2013-03-14 11:02:00,38.0,-99.9,30.13,NNW,330,14.0,23.0,-999,-99.99,,,-99.99,,2013-03-14 15:02:00,
2013-03-14 11:12:00,37.0,-99.9,30.13,WNW,303,13.0,23.0,-999,-99.99,,,-99.99,,2013-03-14 15:12:00,
2013-03-14 11:22:00,-999.0,-99.9,30.13,NW,310,15.0,24.0,-999,-99.99,,,-99.99,,2013-03-14 15:22:00,
2013-03-14 11:33:00,37.0,-99.9,30.13,NW,307,17.0,24.0,-999,-99.99,,,-99.99,,2013-03-14 15:33:00,
2013-03-14 11:43:00,-999.0,-99.9,30.13,WNW,301,19.0,25.0,-999,-99.99,,,-99.99,,2013-03-14 15:43:00,
2013-03-14 11:52:00,-999.0,-99.9,30.13,NW,319,16.0,20.0,-999,-99.99,,,-99.99,,2013-03-14 15:52:00,
2013-03-14 12:03:00,38.0,-99.9,30.12,NW,325,13.0,21.0,-999,-99.99,,,-99.99,,2013-03-14 16:03:00,
2013-03-14 12:13:00,-999.0,-99.9,30.12,NW,310,13.0,23.0,-999,-99.99,,,-99.99,,2013-03-14 16:13:00,
2013-03-14 12:23:00,-999.0,-99.9,30.12,NW,321,19.0,23.0,-999,-99.99,,,-99.99,,2013-03-14 16:23:00,
2013-03-14 12:33:00,38.0,-99.9,30.11,NW,325,17.0,21.0,-999,-99.99,,,-99.99,,2013-03-14 16:33:00,
2013-03-14 12:42:00,39.0,-99.9,30.11,NW,313,19.0,24.0,-999,-99.99,,,-99.99,,2013-03-14 16:42:00,
2013-03-14 12:52:00,39.0,-99.9,30.11,North,-999,-999.0,-999.0,-999,-99.99,,,-99.99,,2013-03-14 16:52:00,
2013-03-14 13:03:00,40.0,-99.9,30.10,NW,321,19.0,33.0,-999,-99.99,,,-99.99,,2013-03-14 17:03:00,
2013-03-14 13:13:00,40.0,-99.9,30.09,NW,319,19.0,24.0,-999,-99.99,,,-99.99,,2013-03-14 17:13:00,
2013-03-14 13:23:00,39.0,-99.9,30.09,North,-999,-999.0,-999.0,-999,-99.99,,,-99.99,,2013-03-14 17:23:00,
2013-03-14 13:33:00,40.0,-99.9,30.09,WNW,283,13.0,22.0,-999,-99.99,,,-99.99,,2013-03-14 17:33:00,
2013-03-14 13:42:00,40.0,-99.9,30.09,North,-999,-999.0,-999.0,-999,-99.99,,,-99.99,,2013-03-14 17:42:00,
2013-03-14 13:53:00,41.0,-99.9,30.08,North,-999,-999.0,-999.0,-999,-99.99,,,-99.99,,2013-03-14 17:53:00,
2013-03-14 14:03:00,41.0,-99.9,30.08,NW,315,18.0,29.0,-999,-99.99,,,-99.99,,2013-03-14 18:03:00,
2013-03-14 14:13:00,-999.0,-99.9,30.08,NW,308,21.0,25.0,-999,-99.99,,,-99.99,,2013-03-14 18:13:00,
2013-03-14 14:23:00,41.0,-99.9,30.07,North,-999,-999.0,-999.0,-999,-99.99,,,-99.99,,2013-03-14 18:23:00,
2013-03-14 14:33:00,42.0,-99.9,30.06,NW,315,17.0,27.0,-999,-99.99,,,-99.99,,2013-03-14 18:33:00,
2013-03-14 14:43:00,43.0,-99.9,30.06,NNW,328,20.0,26.0,-999,-99.99,,,-99.99,,2013-03-14 18:43:00,
2013-03-14 14:53:00,43.0,-99.9,30.05,North,-999,-999.0,-999.0,-999,-99.99,,,-99.99,,2013-03-14 18:53:00,
2013-03-14 15:03:00,43.0,-99.9,30.05,NW,312,19.0,29.0,-999,-99.99,,,-99.99,,2013-03-14 19:03:00,
2013-03-14 15:12:00,-999.0,-99.9,30.04,NW,311,21.0,30.0,-999,-99.99,,,-99.99,,2013-03-14 19:12:00,
2013-03-14 15:23:00,44.0,-99.9,30.03,North,-999,-999.0,-999.0,-999,-99.99,,,-99.99,,2013-03-14 19:23:00,
2013-03-14 15:32:00,43.0,-99.9,30.03,NW,318,21.0,29.0,-999,-99.99,,,-99.99,,2013-03-14 19:32:00,
2013-03-14 15:43:00,44.0,-99.9,30.03,North,-999,-999.0,-999.0,-999,-99.99,,,-99.99,,2013-03-14 19:43:00,
2013-03-14 15:52:00,44.0,-99.9,30.03,North,-999,-999.0,-999.0,-999,-99.99,,,-99.99,,2013-03-14 19:52:00,
2013-03-14 16:02:00,45.0,-99.9,30.03,NW,323,17.0,26.0,-999,-99.99,,,-99.99,,2013-03-14 20:02:00,
2013-03-14 16:12:00,45.0,-99.9,30.03,NW,323,17.0,28.0,-999,-99.99,,,-99.99,,2013-03-14 20:12:00,
2013-03-14 16:22:00,45.0,-99.9,30.03,North,-999,-999.0,-999.0,-999,-99.99,,,-99.99,,2013-03-14 20:22:00,
2013-03-14 16:32:00,45.0,-99.9,30.02,NW,321,16.0,28.0,-999,-99.99,,,-99.99,,2013-03-14 20:32:00,
2013-03-14 16:43:00,-999.0,-99.9,30.02,NW,314,15.0,30.0,-999,-99.99,,,-99.99,,2013-03-14 20:43:00,
2013-03-14 16:53:00,-999.0,-99.9,30.02,NW,318,25.0,36.0,-999,-99.99,,,-99.99,,2013-03-14 20:53:00,
2013-03-14 17:03:00,45.0,-99.9,30.01,NW,311,24.0,33.0,-999,-99.99,,,-99.99,,2013-03-14 21:03:00,
2013-03-14 17:13:00,45.0,-99.9,30.02,North,-999,-999.0,-999.0,-999,-99.99,,,-99.99,,2013-03-14 21:13:00,
2013-03-14 17:23:00,45.0,-99.9,30.02,North,-999,-999.0,-999.0,-999,-99.99,,,-99.99,,2013-03-14 21:23:00,
2013-03-14 17:33:00,45.0,-99.9,30.02,NW,305,22.0,34.0,-999,-99.99,,,-99.99,,2013-03-14 21:33:00,
2013-03-14 17:44:00,45.0,-99.9,30.03,NW,321,21.0,28.0,-999,-99.99,,,-99.99,,2013-03-14 21:44:00,
2013-03-14 17:53:00,-999.0,-99.9,30.03,NW,311,16.0,25.0,-999,-99.99,,,-99.99,,2013-03-14 21:53:00,
2013-03-14 18:04:00,45.0,-99.9,30.03,NW,309,15.0,27.0,-999,-99.99,,,-99.99,,2013-03-14 22:04:00,
2013-03-14 18:13:00,45.0,-99.9,30.03,North,-999,-999.0,-999.0,-999,-99.99,,,-99.99,,2013-03-14 22:13:00,
2013-03-14 18:23:00,45.0,-99.9,30.04,North,-999,-999.0,-999.0,-999,-99.99,,,-99.99,,2013-03-14 22:23:00,
2013-03-14 18:33:00,45.0,-99.9,30.04,NW,311,19.0,21.0,-999,-99.99,,,-99.99,,2013-03-14 22:33:00,
2013-03-14 18:42:00,-999.0,-99.9,30.04,WNW,299,13.0,25.0,-999,-99.99,,,-99.99,,2013-03-14 22:42:00,
2013-03-14 18:53:00,-999.0,-99.9,30.04,WNW,301,17.0,27.0,-999,-99.99,,,-99.99,,2013-03-14 22:53:00,
2013-03-14 19:03:00,44.0,-99.9,30.04,NW,305,16.0,24.0,-999,-99.99,,,-99.99,,2013-03-14 23:03:00,
2013-03-14 19:12:00,44.0,-99.9,30.04,North,-999,-999.0,-999.0,-999,-99.99,,,-99.99,,2013-03-14 23:12:00,
2013-03-14 19:23:00,-999.0,-99.9,30.05,NW,313,16.0,21.0,-999,-99.99,,,-99.99,,2013-03-14 23:23:00,
2013-03-14 19:33:00,44.0,-99.9,30.05,NW,317,17.0,24.0,-999,-99.99,,,-99.99,,2013-03-14 23:33:00,
2013-03-14 19:43:00,43.0,-99.9,30.05,NW,313,15.0,20.0,-999,-99.99,,,-99.99,,2013-03-14 23:43:00,
2013-03-14 19:54:00,43.0,-99.9,30.05,North,-999,-999.0,-999.0,-999,-99.99,,,-99.99,,2013-03-14 23:54:00,
2013-03-14 20:02:00,43.0,-99.9,30.05,NW,313,19.0,26.0,-999,-99.99,,,-99.99,,2013-03-15 00:02:00,
2013-03-14 20:12:00,43.0,-99.9,30.05,NW,309,16.0,19.0,-999,-99.99,,,-99.99,,2013-03-15 00:12:00,
2013-03-14 20:23:00,-999.0,-99.9,30.06,WNW,298,16.0,19.0,-999,-99.99,,,-99.99,,2013-03-15 00:23:00,
2013-03-14 20:33:00,43.0,-99.9,30.06,NW,313,13.0,20.0,-999,-99.99,,,-99.99,,2013-03-15 00:33:00,
2013-03-14 20:43:00,-999.0,-99.9,30.07,NW,309,11.0,16.0,-999,-99.99,,,-99.99,,2013-03-15 00:43:00,
2013-03-14 20:52:00,-999.0,-99.9,30.07,NW,306,7.0,18.0,-999,-99.99,,,-99.99,,2013-03-15 00:52:00,
2013-03-14 21:02:00,42.0,-99.9,30.07,NW,304,8.0,14.0,-999,-99.99,,,-99.99,,2013-03-15 01:02:00,
2013-03-14 21:12:00,42.0,-99.9,30.07,NW,312,8.0,10.0,-999,-99.99,,,-99.99,,2013-03-15 01:12:00,
2013-03-14 21:23:00,42.0,-99.9,30.07,North,-999,-999.0,-999.0,-999,-99.99,,,-99.99,,2013-03-15 01:23:00,
2013-03-14 21:33:00,42.0,-99.9,30.07,NW,313,9.0,14.0,-999,-99.99,,,-99.99,,2013-03-15 01:33:00,
2013-03-14 21:43:00,42.0,-99.9,30.07,NW,311,9.0,13.0,-999,-99.99,,,-99.99,,2013-03-15 01:43:00,
2013-03-14 21:52:00,-999.0,-99.9,30.07,NW,318,8.0,13.0,-999,-99.99,,,-99.99,,2013-03-15 01:52:00,
2013-03-14 22:03:00,42.0,-99.9,30.08,NW,324,6.0,14.0,-999,-99.99,,,-99.99,,2013-03-15 02:03:00,
2013-03-14 22:12:00,41.0,-99.9,30.08,North,-999,-999.0,-999.0,-999,-99.99,,,-99.99,,2013-03-15 02:12:00,
2013-03-14 22:22:00,41.0,-99.9,30.08,North,-999,-999.0,-999.0,-999,-99.99,,,-99.99,,2013-03-15 02:22:00,
2013-03-14 22:32:00,41.0,-99.9,30.08,WNW,294,3.0,5.0,-999,-99.99,,,-99.99,,2013-03-15 02:32:00,
2013-03-14 22:42:00,-999.0,-99.9,30.08,WNW,288,4.0,7.0,-999,-99.99,,,-99.99,,2013-03-15 02:42:00,
2013-03-14 22:52:00,41.0,-99.9,30.08,North,-999,-999.0,-999.0,-999,-99.99,,,-99.99,,2013-03-15 02:52:00,
2013-03-14 23:02:00,41.0,-99.9,30.08,WNW,289,4.0,10.0,-999,-99.99,,,-99.99,,2013-03-15 03:02:00,
2013-03-14 23:13:00,41.0,-99.9,30.08,WNW,302,5.0,7.0,-999,-99.99,,,-99.99,,2013-03-15 03:13:00,
2013-03-14 23:22:00,41.0,-99.9,30.08,North,-999,-999.0,-999.0,-999,-99.99,,,-99.99,,2013-03-15 03:22:00,
2013-03-14 23:33:00,40.0,-99.9,30.08,NW,305,4.0,8.0,-999,-99.99,,,-99.99,,2013-03-15 03:33:00,
2013-03-14 23:43:00,-999.0,-99.9,30.08,NW,306,5.0,8.0,-999,-99.99,,,-99.99,,2013-03-15 03:43:00,
2013-03-14 23:53:00,-999.0,-99.9,30.08,NW,308,7.0,9.0,-999,-99.99,,,-99.99,,2013-03-15 03:53:00,